sensor_id;sensor_type;location;lat;lon;timestamp;temperature;humidity
44215;DHT22;29884;47.450;19.124;2023-02-28T00:00:22;1.10;94.60
44215;DHT22;29884;47.450;19.124;2023-02-28T00:02:48;1.10;94.70
44215;DHT22;29884;47.450;19.124;2023-02-28T00:05:17;1.10;94.60
44215;DHT22;29884;47.450;19.124;2023-02-28T00:07:43;1.10;94.80
44215;DHT22;29884;47.450;19.124;2023-02-28T00:10:15;1.10;94.80
44215;DHT22;29884;47.450;19.124;2023-02-28T00:12:44;1.00;94.50
44215;DHT22;29884;47.450;19.124;2023-02-28T00:15:11;1.00;94.40
44215;DHT22;29884;47.450;19.124;2023-02-28T00:17:37;1.00;94.70
44215;DHT22;29884;47.450;19.124;2023-02-28T00:20:04;1.00;94.70
44215;DHT22;29884;47.450;19.124;2023-02-28T00:22:33;1.10;94.70
44215;DHT22;29884;47.450;19.124;2023-02-28T00:24:59;1.20;94.70
44215;DHT22;29884;47.450;19.124;2023-02-28T00:27:25;1.20;95.10
44215;DHT22;29884;47.450;19.124;2023-02-28T00:29:50;1.20;94.60
44215;DHT22;29884;47.450;19.124;2023-02-28T00:32:16;1.20;94.80
44215;DHT22;29884;47.450;19.124;2023-02-28T00:34:44;1.20;95.10
44215;DHT22;29884;47.450;19.124;2023-02-28T00:37:10;1.20;94.80
44215;DHT22;29884;47.450;19.124;2023-02-28T00:39:39;1.30;95.20
44215;DHT22;29884;47.450;19.124;2023-02-28T00:42:06;1.30;95.00
44215;DHT22;29884;47.450;19.124;2023-02-28T00:44:32;1.30;94.90
44215;DHT22;29884;47.450;19.124;2023-02-28T00:46:58;1.30;95.00
44215;DHT22;29884;47.450;19.124;2023-02-28T00:49:25;1.30;95.30
44215;DHT22;29884;47.450;19.124;2023-02-28T00:51:52;1.40;95.10
44215;DHT22;29884;47.450;19.124;2023-02-28T00:54:18;1.40;95.20
44215;DHT22;29884;47.450;19.124;2023-02-28T00:56:44;1.40;95.20
44215;DHT22;29884;47.450;19.124;2023-02-28T00:59:12;1.30;95.10
44215;DHT22;29884;47.450;19.124;2023-02-28T01:01:38;1.30;95.00
44215;DHT22;29884;47.450;19.124;2023-02-28T01:04:03;1.30;94.80
44215;DHT22;29884;47.450;19.124;2023-02-28T01:06:30;1.20;95.00
44215;DHT22;29884;47.450;19.124;2023-02-28T01:08:57;1.30;95.20
44215;DHT22;29884;47.450;19.124;2023-02-28T01:11:23;1.30;94.90
44215;DHT22;29884;47.450;19.124;2023-02-28T01:13:49;1.30;95.00
44215;DHT22;29884;47.450;19.124;2023-02-28T01:16:15;1.30;95.10
44215;DHT22;29884;47.450;19.124;2023-02-28T01:18:41;1.40;95.10
44215;DHT22;29884;47.450;19.124;2023-02-28T01:21:13;1.30;95.20
44215;DHT22;29884;47.450;19.124;2023-02-28T01:23:39;1.40;95.40
44215;DHT22;29884;47.450;19.124;2023-02-28T01:26:11;1.40;95.10
44215;DHT22;29884;47.450;19.124;2023-02-28T01:28:37;1.30;95.50
44215;DHT22;29884;47.450;19.124;2023-02-28T01:31:03;1.30;95.50
44215;DHT22;29884;47.450;19.124;2023-02-28T01:33:29;1.30;95.40
44215;DHT22;29884;47.450;19.124;2023-02-28T01:36:16;1.30;95.50
44215;DHT22;29884;47.450;19.124;2023-02-28T01:38:44;1.30;95.50
44215;DHT22;29884;47.450;19.124;2023-02-28T01:41:18;1.30;95.60
44215;DHT22;29884;47.450;19.124;2023-02-28T01:46:11;1.30;95.70
44215;DHT22;29884;47.450;19.124;2023-02-28T01:48:39;1.20;95.50
44215;DHT22;29884;47.450;19.124;2023-02-28T01:51:10;1.10;95.80
44215;DHT22;29884;47.450;19.124;2023-02-28T01:53:41;1.10;95.80
44215;DHT22;29884;47.450;19.124;2023-02-28T01:56:09;1.00;96.00
44215;DHT22;29884;47.450;19.124;2023-02-28T01:58:36;1.10;96.10
44215;DHT22;29884;47.450;19.124;2023-02-28T02:01:02;1.00;96.20
44215;DHT22;29884;47.450;19.124;2023-02-28T02:03:29;1.00;96.20
44215;DHT22;29884;47.450;19.124;2023-02-28T02:05:55;1.00;96.50
44215;DHT22;29884;47.450;19.124;2023-02-28T02:08:26;1.00;96.70
44215;DHT22;29884;47.450;19.124;2023-02-28T02:11:00;1.10;96.60
44215;DHT22;29884;47.450;19.124;2023-02-28T02:13:52;1.10;96.60
44215;DHT22;29884;47.450;19.124;2023-02-28T02:16:34;1.10;96.60
44215;DHT22;29884;47.450;19.124;2023-02-28T02:32:49;1.00;97.30
44215;DHT22;29884;47.450;19.124;2023-02-28T02:38:06;1.10;97.50
44215;DHT22;29884;47.450;19.124;2023-02-28T02:40:46;1.20;97.50
44215;DHT22;29884;47.450;19.124;2023-02-28T02:45:50;1.20;97.50
44215;DHT22;29884;47.450;19.124;2023-02-28T02:48:19;1.20;97.10
44215;DHT22;29884;47.450;19.124;2023-02-28T02:50:54;1.20;97.20
44215;DHT22;29884;47.450;19.124;2023-02-28T02:53:31;1.30;97.00
44215;DHT22;29884;47.450;19.124;2023-02-28T02:55:58;1.30;97.00
44215;DHT22;29884;47.450;19.124;2023-02-28T02:58:28;1.20;96.60
44215;DHT22;29884;47.450;19.124;2023-02-28T03:00:58;1.20;96.60
44215;DHT22;29884;47.450;19.124;2023-02-28T03:03:25;1.30;96.60
44215;DHT22;29884;47.450;19.124;2023-02-28T03:05:57;1.20;96.50
44215;DHT22;29884;47.450;19.124;2023-02-28T03:08:23;1.20;96.60
44215;DHT22;29884;47.450;19.124;2023-02-28T03:10:51;1.20;96.30
44215;DHT22;29884;47.450;19.124;2023-02-28T03:27:30;1.10;95.60
44215;DHT22;29884;47.450;19.124;2023-02-28T03:33:06;1.10;95.50
44215;DHT22;29884;47.450;19.124;2023-02-28T03:35:38;1.10;95.50
44215;DHT22;29884;47.450;19.124;2023-02-28T03:38:20;1.10;95.30
44215;DHT22;29884;47.450;19.124;2023-02-28T03:40:55;1.10;95.40
44215;DHT22;29884;47.450;19.124;2023-02-28T03:43:26;1.10;95.50
44215;DHT22;29884;47.450;19.124;2023-02-28T03:45:55;1.10;95.40
44215;DHT22;29884;47.450;19.124;2023-02-28T03:48:43;1.10;95.20
44215;DHT22;29884;47.450;19.124;2023-02-28T03:51:16;1.10;95.20
44215;DHT22;29884;47.450;19.124;2023-02-28T03:54:06;1.10;95.00
44215;DHT22;29884;47.450;19.124;2023-02-28T03:56:53;1.10;95.10
44215;DHT22;29884;47.450;19.124;2023-02-28T03:59:29;1.10;95.00
44215;DHT22;29884;47.450;19.124;2023-02-28T04:01:57;1.10;95.40
44215;DHT22;29884;47.450;19.124;2023-02-28T04:04:24;1.10;95.50
44215;DHT22;29884;47.450;19.124;2023-02-28T04:07:01;1.20;95.50
44215;DHT22;29884;47.450;19.124;2023-02-28T04:09:27;1.10;95.50
44215;DHT22;29884;47.450;19.124;2023-02-28T04:11:54;1.10;95.80
44215;DHT22;29884;47.450;19.124;2023-02-28T04:14:21;1.10;96.00
44215;DHT22;29884;47.450;19.124;2023-02-28T04:16:47;1.10;95.90
44215;DHT22;29884;47.450;19.124;2023-02-28T04:19:13;1.10;95.70
44215;DHT22;29884;47.450;19.124;2023-02-28T04:21:49;1.10;95.90
44215;DHT22;29884;47.450;19.124;2023-02-28T04:24:20;1.00;95.60
44215;DHT22;29884;47.450;19.124;2023-02-28T04:26:48;1.10;95.80
44215;DHT22;29884;47.450;19.124;2023-02-28T04:29:22;1.10;95.50
44215;DHT22;29884;47.450;19.124;2023-02-28T04:31:48;1.10;95.90
44215;DHT22;29884;47.450;19.124;2023-02-28T04:34:14;1.10;95.70
44215;DHT22;29884;47.450;19.124;2023-02-28T04:36:39;1.10;95.90
44215;DHT22;29884;47.450;19.124;2023-02-28T04:39:05;1.10;95.80
44215;DHT22;29884;47.450;19.124;2023-02-28T04:41:31;1.10;95.70
44215;DHT22;29884;47.450;19.124;2023-02-28T04:43:57;1.10;95.80
44215;DHT22;29884;47.450;19.124;2023-02-28T04:46:23;1.00;95.80
44215;DHT22;29884;47.450;19.124;2023-02-28T04:48:49;1.00;95.70
44215;DHT22;29884;47.450;19.124;2023-02-28T04:51:17;1.10;95.60
44215;DHT22;29884;47.450;19.124;2023-02-28T04:53:43;1.10;95.60
44215;DHT22;29884;47.450;19.124;2023-02-28T04:56:14;1.10;95.60
44215;DHT22;29884;47.450;19.124;2023-02-28T04:58:40;1.20;95.90
44215;DHT22;29884;47.450;19.124;2023-02-28T05:01:27;1.30;95.70
44215;DHT22;29884;47.450;19.124;2023-02-28T05:03:55;1.20;95.60
44215;DHT22;29884;47.450;19.124;2023-02-28T05:06:23;1.20;95.40
44215;DHT22;29884;47.450;19.124;2023-02-28T05:08:49;1.20;95.10
44215;DHT22;29884;47.450;19.124;2023-02-28T05:11:30;1.20;95.30
44215;DHT22;29884;47.450;19.124;2023-02-28T05:14:00;1.20;95.40
44215;DHT22;29884;47.450;19.124;2023-02-28T05:16:26;1.30;95.60
44215;DHT22;29884;47.450;19.124;2023-02-28T05:18:52;1.30;95.70
44215;DHT22;29884;47.450;19.124;2023-02-28T05:21:32;1.30;95.70
44215;DHT22;29884;47.450;19.124;2023-02-28T05:24:06;1.30;95.90
44215;DHT22;29884;47.450;19.124;2023-02-28T05:26:35;1.20;95.70
44215;DHT22;29884;47.450;19.124;2023-02-28T05:29:01;1.20;95.60
44215;DHT22;29884;47.450;19.124;2023-02-28T05:31:26;1.20;95.90
44215;DHT22;29884;47.450;19.124;2023-02-28T05:33:53;1.20;95.70
44215;DHT22;29884;47.450;19.124;2023-02-28T05:36:19;1.10;95.60
44215;DHT22;29884;47.450;19.124;2023-02-28T05:38:48;1.10;95.50
44215;DHT22;29884;47.450;19.124;2023-02-28T05:41:15;1.20;95.60
44215;DHT22;29884;47.450;19.124;2023-02-28T05:43:40;1.10;95.60
44215;DHT22;29884;47.450;19.124;2023-02-28T05:46:07;1.10;95.90
44215;DHT22;29884;47.450;19.124;2023-02-28T05:48:35;1.10;95.50
44215;DHT22;29884;47.450;19.124;2023-02-28T05:51:01;1.10;95.50
44215;DHT22;29884;47.450;19.124;2023-02-28T05:53:28;1.20;95.60
44215;DHT22;29884;47.450;19.124;2023-02-28T05:55:53;1.20;95.60
44215;DHT22;29884;47.450;19.124;2023-02-28T05:58:19;1.20;95.60
44215;DHT22;29884;47.450;19.124;2023-02-28T06:00:45;1.30;95.70
44215;DHT22;29884;47.450;19.124;2023-02-28T06:03:11;1.30;95.80
44215;DHT22;29884;47.450;19.124;2023-02-28T06:05:37;1.30;95.80
44215;DHT22;29884;47.450;19.124;2023-02-28T06:08:04;1.30;95.70
44215;DHT22;29884;47.450;19.124;2023-02-28T06:10:32;1.30;96.00
44215;DHT22;29884;47.450;19.124;2023-02-28T06:13:02;1.30;96.20
44215;DHT22;29884;47.450;19.124;2023-02-28T06:15:29;1.30;95.90
44215;DHT22;29884;47.450;19.124;2023-02-28T06:17:55;1.30;96.00
44215;DHT22;29884;47.450;19.124;2023-02-28T06:20:25;1.30;95.80
44215;DHT22;29884;47.450;19.124;2023-02-28T06:22:55;1.30;95.80
44215;DHT22;29884;47.450;19.124;2023-02-28T06:25:21;1.30;95.50
44215;DHT22;29884;47.450;19.124;2023-02-28T06:27:47;1.30;95.50
44215;DHT22;29884;47.450;19.124;2023-02-28T06:30:14;1.30;95.40
44215;DHT22;29884;47.450;19.124;2023-02-28T06:32:39;1.40;95.40
44215;DHT22;29884;47.450;19.124;2023-02-28T06:35:06;1.40;95.40
44215;DHT22;29884;47.450;19.124;2023-02-28T06:37:32;1.50;95.40
44215;DHT22;29884;47.450;19.124;2023-02-28T06:39:58;1.50;95.30
44215;DHT22;29884;47.450;19.124;2023-02-28T06:42:25;1.50;95.20
44215;DHT22;29884;47.450;19.124;2023-02-28T06:44:55;1.60;95.30
44215;DHT22;29884;47.450;19.124;2023-02-28T06:47:21;1.60;95.00
44215;DHT22;29884;47.450;19.124;2023-02-28T06:49:47;1.60;94.80
44215;DHT22;29884;47.450;19.124;2023-02-28T06:52:14;1.70;94.60
44215;DHT22;29884;47.450;19.124;2023-02-28T06:54:40;1.70;94.70
44215;DHT22;29884;47.450;19.124;2023-02-28T06:57:06;1.70;94.40
44215;DHT22;29884;47.450;19.124;2023-02-28T06:59:32;1.80;94.50
44215;DHT22;29884;47.450;19.124;2023-02-28T07:01:58;1.90;94.40
44215;DHT22;29884;47.450;19.124;2023-02-28T07:04:23;2.00;94.60
44215;DHT22;29884;47.450;19.124;2023-02-28T07:06:49;2.00;94.00
44215;DHT22;29884;47.450;19.124;2023-02-28T07:09:15;2.00;94.10
44215;DHT22;29884;47.450;19.124;2023-02-28T07:11:41;2.20;94.20
44215;DHT22;29884;47.450;19.124;2023-02-28T07:14:08;2.30;94.00
44215;DHT22;29884;47.450;19.124;2023-02-28T07:16:34;2.30;93.70
44215;DHT22;29884;47.450;19.124;2023-02-28T07:19:00;2.30;93.70
44215;DHT22;29884;47.450;19.124;2023-02-28T07:21:26;2.30;93.40
44215;DHT22;29884;47.450;19.124;2023-02-28T07:23:52;2.30;93.20
44215;DHT22;29884;47.450;19.124;2023-02-28T07:26:18;2.20;93.10
44215;DHT22;29884;47.450;19.124;2023-02-28T07:28:46;2.30;93.20
44215;DHT22;29884;47.450;19.124;2023-02-28T07:31:13;2.50;93.20
44215;DHT22;29884;47.450;19.124;2023-02-28T07:33:40;2.50;92.80
44215;DHT22;29884;47.450;19.124;2023-02-28T07:36:11;2.60;92.90
44215;DHT22;29884;47.450;19.124;2023-02-28T07:38:44;2.60;92.50
44215;DHT22;29884;47.450;19.124;2023-02-28T07:41:11;2.50;92.00
44215;DHT22;29884;47.450;19.124;2023-02-28T07:43:37;2.60;92.50
44215;DHT22;29884;47.450;19.124;2023-02-28T07:46:11;2.80;92.60
44215;DHT22;29884;47.450;19.124;2023-02-28T07:48:37;2.90;92.00
44215;DHT22;29884;47.450;19.124;2023-02-28T07:51:03;2.90;92.30
44215;DHT22;29884;47.450;19.124;2023-02-28T07:53:30;3.00;92.10
44215;DHT22;29884;47.450;19.124;2023-02-28T07:56:00;3.10;91.70
44215;DHT22;29884;47.450;19.124;2023-02-28T07:58:27;3.10;91.70
44215;DHT22;29884;47.450;19.124;2023-02-28T08:00:53;3.20;92.40
44215;DHT22;29884;47.450;19.124;2023-02-28T08:03:20;3.20;91.30
44215;DHT22;29884;47.450;19.124;2023-02-28T08:05:47;3.10;91.20
44215;DHT22;29884;47.450;19.124;2023-02-28T08:08:14;3.20;91.10
44215;DHT22;29884;47.450;19.124;2023-02-28T08:10:40;3.20;90.90
44215;DHT22;29884;47.450;19.124;2023-02-28T08:13:06;3.20;90.60
44215;DHT22;29884;47.450;19.124;2023-02-28T08:15:31;3.30;90.60
44215;DHT22;29884;47.450;19.124;2023-02-28T08:17:57;3.50;90.80
44215;DHT22;29884;47.450;19.124;2023-02-28T08:20:23;3.60;90.10
44215;DHT22;29884;47.450;19.124;2023-02-28T08:22:49;3.70;90.90
44215;DHT22;29884;47.450;19.124;2023-02-28T08:25:15;3.90;90.40
44215;DHT22;29884;47.450;19.124;2023-02-28T08:27:41;4.00;89.80
44215;DHT22;29884;47.450;19.124;2023-02-28T08:30:10;3.90;89.30
44215;DHT22;29884;47.450;19.124;2023-02-28T08:32:35;3.80;89.00
44215;DHT22;29884;47.450;19.124;2023-02-28T08:35:01;3.90;89.50
44215;DHT22;29884;47.450;19.124;2023-02-28T08:37:28;4.00;89.20
44215;DHT22;29884;47.450;19.124;2023-02-28T08:39:54;4.00;89.90
44215;DHT22;29884;47.450;19.124;2023-02-28T08:42:20;4.10;89.30
44215;DHT22;29884;47.450;19.124;2023-02-28T08:44:46;4.10;90.30
44215;DHT22;29884;47.450;19.124;2023-02-28T08:47:12;4.00;90.00
44215;DHT22;29884;47.450;19.124;2023-02-28T08:49:38;3.90;90.00
44215;DHT22;29884;47.450;19.124;2023-02-28T08:52:04;4.00;90.40
44215;DHT22;29884;47.450;19.124;2023-02-28T08:54:29;4.20;90.10
44215;DHT22;29884;47.450;19.124;2023-02-28T08:56:57;4.20;89.20
44215;DHT22;29884;47.450;19.124;2023-02-28T08:59:22;4.30;90.40
44215;DHT22;29884;47.450;19.124;2023-02-28T09:01:48;4.40;89.60
44215;DHT22;29884;47.450;19.124;2023-02-28T09:04:14;4.40;90.10
44215;DHT22;29884;47.450;19.124;2023-02-28T09:06:40;4.40;89.30
44215;DHT22;29884;47.450;19.124;2023-02-28T09:09:06;4.50;90.30
44215;DHT22;29884;47.450;19.124;2023-02-28T09:11:33;4.50;89.00
44215;DHT22;29884;47.450;19.124;2023-02-28T09:14:00;4.50;89.60
44215;DHT22;29884;47.450;19.124;2023-02-28T09:16:26;4.70;89.10
44215;DHT22;29884;47.450;19.124;2023-02-28T09:18:52;4.50;88.90
44215;DHT22;29884;47.450;19.124;2023-02-28T09:21:18;4.50;89.30
44215;DHT22;29884;47.450;19.124;2023-02-28T09:23:46;4.60;90.00
44215;DHT22;29884;47.450;19.124;2023-02-28T09:26:20;4.70;89.70
44215;DHT22;29884;47.450;19.124;2023-02-28T09:28:47;4.70;89.40
44215;DHT22;29884;47.450;19.124;2023-02-28T09:31:15;4.80;89.70
44215;DHT22;29884;47.450;19.124;2023-02-28T09:33:41;5.10;89.10
44215;DHT22;29884;47.450;19.124;2023-02-28T09:36:07;5.10;88.20
44215;DHT22;29884;47.450;19.124;2023-02-28T09:38:33;5.00;88.50
44215;DHT22;29884;47.450;19.124;2023-02-28T09:41:01;5.10;89.40
44215;DHT22;29884;47.450;19.124;2023-02-28T09:43:35;4.80;89.40
44215;DHT22;29884;47.450;19.124;2023-02-28T09:46:53;5.00;91.20
44215;DHT22;29884;47.450;19.124;2023-02-28T09:49:28;5.00;88.80
44215;DHT22;29884;47.450;19.124;2023-02-28T09:54:29;5.00;89.70
44215;DHT22;29884;47.450;19.124;2023-02-28T09:57:39;5.20;90.00
44215;DHT22;29884;47.450;19.124;2023-02-28T10:00:18;5.30;89.40
44215;DHT22;29884;47.450;19.124;2023-02-28T10:02:57;5.30;89.30
44215;DHT22;29884;47.450;19.124;2023-02-28T10:08:38;5.40;89.00
44215;DHT22;29884;47.450;19.124;2023-02-28T10:11:11;5.70;89.20
44215;DHT22;29884;47.450;19.124;2023-02-28T10:16:15;5.80;87.50
44215;DHT22;29884;47.450;19.124;2023-02-28T10:18:43;5.50;88.90
44215;DHT22;29884;47.450;19.124;2023-02-28T10:21:28;5.70;88.30
44215;DHT22;29884;47.450;19.124;2023-02-28T10:27:24;5.90;88.70
44215;DHT22;29884;47.450;19.124;2023-02-28T10:29:53;6.20;87.30
44215;DHT22;29884;47.450;19.124;2023-02-28T10:32:21;5.90;86.70
44215;DHT22;29884;47.450;19.124;2023-02-28T10:37:47;6.20;88.90
44215;DHT22;29884;47.450;19.124;2023-02-28T10:45:30;5.90;87.00
44215;DHT22;29884;47.450;19.124;2023-02-28T10:48:22;6.00;88.00
44215;DHT22;29884;47.450;19.124;2023-02-28T10:50:52;6.00;87.00
44215;DHT22;29884;47.450;19.124;2023-02-28T10:58:29;6.20;87.60
44215;DHT22;29884;47.450;19.124;2023-02-28T11:00:57;6.30;87.30
44215;DHT22;29884;47.450;19.124;2023-02-28T11:03:34;6.10;86.90
44215;DHT22;29884;47.450;19.124;2023-02-28T11:06:29;6.30;88.10
44215;DHT22;29884;47.450;19.124;2023-02-28T11:08:56;6.30;86.90
44215;DHT22;29884;47.450;19.124;2023-02-28T11:11:24;6.70;87.30
44215;DHT22;29884;47.450;19.124;2023-02-28T11:13:56;6.50;86.50
44215;DHT22;29884;47.450;19.124;2023-02-28T11:16:35;6.40;86.30
44215;DHT22;29884;47.450;19.124;2023-02-28T11:19:04;6.50;86.10
44215;DHT22;29884;47.450;19.124;2023-02-28T11:21:36;6.40;87.20
44215;DHT22;29884;47.450;19.124;2023-02-28T11:24:31;6.60;87.60
44215;DHT22;29884;47.450;19.124;2023-02-28T11:26:59;6.60;88.10
44215;DHT22;29884;47.450;19.124;2023-02-28T11:29:30;6.40;87.10
44215;DHT22;29884;47.450;19.124;2023-02-28T11:34:38;6.30;87.50
44215;DHT22;29884;47.450;19.124;2023-02-28T11:37:08;6.30;87.30
44215;DHT22;29884;47.450;19.124;2023-02-28T11:39:36;6.40;87.90
44215;DHT22;29884;47.450;19.124;2023-02-28T11:45:03;6.60;90.00
44215;DHT22;29884;47.450;19.124;2023-02-28T11:52:45;7.00;87.40
44215;DHT22;29884;47.450;19.124;2023-02-28T12:01:06;7.50;86.10
44215;DHT22;29884;47.450;19.124;2023-02-28T12:25:55;7.20;89.80
44215;DHT22;29884;47.450;19.124;2023-02-28T12:28:33;7.10;88.50
44215;DHT22;29884;47.450;19.124;2023-02-28T12:31:26;7.10;88.90
44215;DHT22;29884;47.450;19.124;2023-02-28T12:33:59;7.30;88.60
44215;DHT22;29884;47.450;19.124;2023-02-28T12:36:27;7.30;87.80
44215;DHT22;29884;47.450;19.124;2023-02-28T12:39:02;7.50;87.50
44215;DHT22;29884;47.450;19.124;2023-02-28T12:41:45;7.40;87.50
44215;DHT22;29884;47.450;19.124;2023-02-28T12:47:04;7.20;87.60
44215;DHT22;29884;47.450;19.124;2023-02-28T12:49:51;7.20;88.70
44215;DHT22;29884;47.450;19.124;2023-02-28T12:52:39;7.20;88.50
44215;DHT22;29884;47.450;19.124;2023-02-28T12:55:16;7.30;88.70
44215;DHT22;29884;47.450;19.124;2023-02-28T13:00:23;7.20;89.50
44215;DHT22;29884;47.450;19.124;2023-02-28T13:09:14;7.10;88.80
44215;DHT22;29884;47.450;19.124;2023-02-28T13:11:45;6.90;89.00
44215;DHT22;29884;47.450;19.124;2023-02-28T13:19:57;7.20;89.20
44215;DHT22;29884;47.450;19.124;2023-02-28T13:22:45;7.10;89.80
44215;DHT22;29884;47.450;19.124;2023-02-28T13:27:55;6.90;90.10
44215;DHT22;29884;47.450;19.124;2023-02-28T13:39:43;7.00;89.60
44215;DHT22;29884;47.450;19.124;2023-02-28T13:49:29;7.00;89.10
44215;DHT22;29884;47.450;19.124;2023-02-28T14:06:29;7.20;89.00
44215;DHT22;29884;47.450;19.124;2023-02-28T14:09:01;7.10;89.00
44215;DHT22;29884;47.450;19.124;2023-02-28T14:11:37;7.00;89.30
44215;DHT22;29884;47.450;19.124;2023-02-28T14:14:05;6.90;89.20
44215;DHT22;29884;47.450;19.124;2023-02-28T14:16:57;6.90;89.80
44215;DHT22;29884;47.450;19.124;2023-02-28T14:19:29;7.00;90.10
44215;DHT22;29884;47.450;19.124;2023-02-28T14:38:32;6.80;90.50
44215;DHT22;29884;47.450;19.124;2023-02-28T14:41:02;6.70;90.10
44215;DHT22;29884;47.450;19.124;2023-02-28T14:43:28;6.70;90.10
44215;DHT22;29884;47.450;19.124;2023-02-28T14:45:59;6.80;90.20
44215;DHT22;29884;47.450;19.124;2023-02-28T14:48:26;6.70;90.20
44215;DHT22;29884;47.450;19.124;2023-02-28T14:50:55;6.70;90.50
44215;DHT22;29884;47.450;19.124;2023-02-28T14:53:25;6.60;90.80
44215;DHT22;29884;47.450;19.124;2023-02-28T14:55:52;6.60;90.80
44215;DHT22;29884;47.450;19.124;2023-02-28T14:58:23;6.50;91.20
44215;DHT22;29884;47.450;19.124;2023-02-28T15:00:52;6.40;91.30
44215;DHT22;29884;47.450;19.124;2023-02-28T15:03:23;6.30;91.30
44215;DHT22;29884;47.450;19.124;2023-02-28T15:05:58;6.30;91.50
44215;DHT22;29884;47.450;19.124;2023-02-28T15:08:25;6.30;91.80
44215;DHT22;29884;47.450;19.124;2023-02-28T15:11:20;6.20;91.90
44215;DHT22;29884;47.450;19.124;2023-02-28T15:13:51;6.20;92.10
44215;DHT22;29884;47.450;19.124;2023-02-28T15:16:41;6.20;92.60
44215;DHT22;29884;47.450;19.124;2023-02-28T15:19:23;6.20;92.40
44215;DHT22;29884;47.450;19.124;2023-02-28T15:22:07;6.20;92.60
44215;DHT22;29884;47.450;19.124;2023-02-28T15:24:41;6.10;92.70
44215;DHT22;29884;47.450;19.124;2023-02-28T15:27:14;6.00;92.70
44215;DHT22;29884;47.450;19.124;2023-02-28T15:29:47;6.00;92.80
44215;DHT22;29884;47.450;19.124;2023-02-28T15:32:34;6.00;92.80
44215;DHT22;29884;47.450;19.124;2023-02-28T15:40:54;6.00;93.10
44215;DHT22;29884;47.450;19.124;2023-02-28T15:46:06;5.90;93.40
44215;DHT22;29884;47.450;19.124;2023-02-28T15:48:53;5.80;93.40
44215;DHT22;29884;47.450;19.124;2023-02-28T15:51:33;5.80;93.30
44215;DHT22;29884;47.450;19.124;2023-02-28T15:54:01;5.80;93.60
44215;DHT22;29884;47.450;19.124;2023-02-28T15:56:33;5.80;93.70
44215;DHT22;29884;47.450;19.124;2023-02-28T15:59:06;5.70;93.50
44215;DHT22;29884;47.450;19.124;2023-02-28T16:01:37;5.70;93.90
44215;DHT22;29884;47.450;19.124;2023-02-28T16:04:21;5.70;93.90
44215;DHT22;29884;47.450;19.124;2023-02-28T16:09:24;5.50;94.30
44215;DHT22;29884;47.450;19.124;2023-02-28T16:11:52;5.50;94.40
44215;DHT22;29884;47.450;19.124;2023-02-28T16:14:23;5.50;94.60
44215;DHT22;29884;47.450;19.124;2023-02-28T16:16:52;5.50;94.80
44215;DHT22;29884;47.450;19.124;2023-02-28T16:19:19;5.40;94.70
44215;DHT22;29884;47.450;19.124;2023-02-28T16:21:46;5.40;94.80
44215;DHT22;29884;47.450;19.124;2023-02-28T16:24:12;5.50;95.00
44215;DHT22;29884;47.450;19.124;2023-02-28T16:26:40;5.50;95.10
44215;DHT22;29884;47.450;19.124;2023-02-28T16:29:06;5.50;95.40
44215;DHT22;29884;47.450;19.124;2023-02-28T16:31:37;5.40;95.40
44215;DHT22;29884;47.450;19.124;2023-02-28T16:34:04;5.40;95.50
44215;DHT22;29884;47.450;19.124;2023-02-28T16:36:30;5.40;95.80
44215;DHT22;29884;47.450;19.124;2023-02-28T16:38:56;5.40;96.00
44215;DHT22;29884;47.450;19.124;2023-02-28T16:41:24;5.40;96.10
44215;DHT22;29884;47.450;19.124;2023-02-28T16:43:53;5.40;96.40
44215;DHT22;29884;47.450;19.124;2023-02-28T16:46:20;5.40;96.20
44215;DHT22;29884;47.450;19.124;2023-02-28T16:48:46;5.40;96.40
44215;DHT22;29884;47.450;19.124;2023-02-28T16:51:17;5.40;96.60
44215;DHT22;29884;47.450;19.124;2023-02-28T16:53:44;5.40;96.70
44215;DHT22;29884;47.450;19.124;2023-02-28T16:56:21;5.40;96.70
44215;DHT22;29884;47.450;19.124;2023-02-28T16:58:48;5.40;96.80
44215;DHT22;29884;47.450;19.124;2023-02-28T17:01:15;5.30;96.90
44215;DHT22;29884;47.450;19.124;2023-02-28T17:03:41;5.30;97.00
44215;DHT22;29884;47.450;19.124;2023-02-28T17:06:22;5.30;97.20
44215;DHT22;29884;47.450;19.124;2023-02-28T17:08:50;5.30;97.30
44215;DHT22;29884;47.450;19.124;2023-02-28T17:11:16;5.30;97.40
44215;DHT22;29884;47.450;19.124;2023-02-28T17:13:42;5.30;97.50
44215;DHT22;29884;47.450;19.124;2023-02-28T17:16:31;5.30;97.30
44215;DHT22;29884;47.450;19.124;2023-02-28T17:19:00;5.20;97.50
44215;DHT22;29884;47.450;19.124;2023-02-28T17:21:26;5.30;97.50
44215;DHT22;29884;47.450;19.124;2023-02-28T17:23:52;5.20;97.70
44215;DHT22;29884;47.450;19.124;2023-02-28T17:26:21;5.20;97.80
44215;DHT22;29884;47.450;19.124;2023-02-28T17:28:48;5.20;98.00
44215;DHT22;29884;47.450;19.124;2023-02-28T17:31:14;5.20;98.10
44215;DHT22;29884;47.450;19.124;2023-02-28T17:33:40;5.10;98.20
44215;DHT22;29884;47.450;19.124;2023-02-28T17:36:06;5.10;98.40
44215;DHT22;29884;47.450;19.124;2023-02-28T17:38:34;5.10;98.60
44215;DHT22;29884;47.450;19.124;2023-02-28T17:41:00;5.10;98.50
44215;DHT22;29884;47.450;19.124;2023-02-28T17:43:26;5.10;98.50
44215;DHT22;29884;47.450;19.124;2023-02-28T17:45:53;5.10;98.50
44215;DHT22;29884;47.450;19.124;2023-02-28T17:48:19;5.10;98.70
44215;DHT22;29884;47.450;19.124;2023-02-28T17:50:45;5.10;98.70
44215;DHT22;29884;47.450;19.124;2023-02-28T17:53:11;5.10;98.90
44215;DHT22;29884;47.450;19.124;2023-02-28T17:55:37;5.10;99.00
44215;DHT22;29884;47.450;19.124;2023-02-28T17:58:03;5.20;98.90
44215;DHT22;29884;47.450;19.124;2023-02-28T18:00:29;5.20;99.00
44215;DHT22;29884;47.450;19.124;2023-02-28T18:02:55;5.20;99.00
44215;DHT22;29884;47.450;19.124;2023-02-28T18:05:21;5.10;99.00
44215;DHT22;29884;47.450;19.124;2023-02-28T18:07:46;5.10;98.80
44215;DHT22;29884;47.450;19.124;2023-02-28T18:10:17;5.10;98.90
44215;DHT22;29884;47.450;19.124;2023-02-28T18:12:46;5.10;99.00
44215;DHT22;29884;47.450;19.124;2023-02-28T18:15:13;5.10;99.10
44215;DHT22;29884;47.450;19.124;2023-02-28T18:17:39;5.10;99.10
44215;DHT22;29884;47.450;19.124;2023-02-28T18:20:05;5.10;99.20
44215;DHT22;29884;47.450;19.124;2023-02-28T18:22:31;5.10;99.00
44215;DHT22;29884;47.450;19.124;2023-02-28T18:24:57;5.00;99.00
44215;DHT22;29884;47.450;19.124;2023-02-28T18:27:23;5.10;99.10
44215;DHT22;29884;47.450;19.124;2023-02-28T18:29:49;5.10;99.30
44215;DHT22;29884;47.450;19.124;2023-02-28T18:32:16;5.10;99.40
44215;DHT22;29884;47.450;19.124;2023-02-28T18:34:42;5.10;99.30
44215;DHT22;29884;47.450;19.124;2023-02-28T18:37:08;5.10;99.30
44215;DHT22;29884;47.450;19.124;2023-02-28T18:39:36;5.10;99.40
44215;DHT22;29884;47.450;19.124;2023-02-28T18:42:02;5.00;99.40
44215;DHT22;29884;47.450;19.124;2023-02-28T18:44:28;5.00;99.40
44215;DHT22;29884;47.450;19.124;2023-02-28T18:46:55;5.00;99.50